sensor_id;sensor_type;location;lat;lon;timestamp;pressure;altitude;pressure_sealevel;temperature;humidity
61880;BME280;47817;52.798;27.544;2023-06-26T00:02:24;1020.2;;;17.9;76.6
61880;BME280;47817;52.798;27.544;2023-06-26T00:07:22;1020.2;;;18;75.5
61880;BME280;47817;52.798;27.544;2023-06-26T00:12:32;1020.2;;;18;75.6
61880;BME280;47817;52.798;27.544;2023-06-26T00:17:24;1020.2;;;18;75.6
61880;BME280;47817;52.798;27.544;2023-06-26T00:22:40;1020.1;;;18.1;75.3
61880;BME280;47817;52.798;27.544;2023-06-26T00:27:00;1020;;;18.1;75.1
61880;BME280;47817;52.798;27.544;2023-06-26T00:32:40;1020;;;18.2;74.9
61880;BME280;47817;52.798;27.544;2023-06-26T00:37:24;1019.9;;;18.2;74.9
61880;BME280;47817;52.798;27.544;2023-06-26T00:42:40;1019.9;;;18.2;75.1
61880;BME280;47817;52.798;27.544;2023-06-26T00:47:32;1019.8;;;18.2;75.3
61880;BME280;47817;52.798;27.544;2023-06-26T00:52:24;1019.8;;;18.2;75.5
61880;BME280;47817;52.798;27.544;2023-06-26T00:56:52;1019.8;;;18.2;75.6
61880;BME280;47817;52.798;27.544;2023-06-26T01:01:52;1019.8;;;18.2;75.9
61880;BME280;47817;52.798;27.544;2023-06-26T01:07:40;1019.8;;;18.1;75.7
61880;BME280;47817;52.798;27.544;2023-06-26T01:12:08;1019.8;;;18.1;75.6
61880;BME280;47817;52.798;27.544;2023-06-26T01:17:22;1019.8;;;18.1;75.2
61880;BME280;47817;52.798;27.544;2023-06-26T01:22:43;1019.8;;;18;75.6
61880;BME280;47817;52.798;27.544;2023-06-26T01:27:42;1019.9;;;18;75.9
61880;BME280;47817;52.798;27.544;2023-06-26T01:32:02;1019.9;;;17.9;76.2
61880;BME280;47817;52.798;27.544;2023-06-26T01:37:08;1020;;;17.8;76.6
61880;BME280;47817;52.798;27.544;2023-06-26T01:42:34;1020;;;17.7;77
61880;BME280;47817;52.798;27.544;2023-06-26T01:46:57;1020;;;17.7;76.7
61880;BME280;47817;52.798;27.544;2023-06-26T01:51:54;1020;;;17.7;76.4
61880;BME280;47817;52.798;27.544;2023-06-26T01:56:58;1020;;;17.7;76.1
61880;BME280;47817;52.798;27.544;2023-06-26T02:02:42;1020;;;17.7;76.2
61880;BME280;47817;52.798;27.544;2023-06-26T02:07:08;1019.9;;;17.7;76.1
61880;BME280;47817;52.798;27.544;2023-06-26T02:12:18;1019.9;;;17.7;75.9
61880;BME280;47817;52.798;27.544;2023-06-26T02:17:42;1019.9;;;17.6;75.8
61880;BME280;47817;52.798;27.544;2023-06-26T02:22:34;1020;;;17.6;76
61880;BME280;47817;52.798;27.544;2023-06-26T02:26:52;1019.9;;;17.8;75.2
61880;BME280;47817;52.798;27.544;2023-06-26T02:32:26;1019.8;;;17.9;74.4
61880;BME280;47817;52.798;27.544;2023-06-26T02:37:02;1019.8;;;18.1;74.1
61880;BME280;47817;52.798;27.544;2023-06-26T02:42:08;1019.9;;;18.2;73.4
61880;BME280;47817;52.798;27.544;2023-06-26T02:47:08;1019.8;;;18.4;72.8
61880;BME280;47817;52.798;27.544;2023-06-26T02:52:42;1019.8;;;18.6;72
61880;BME280;47817;52.798;27.544;2023-06-26T02:57:24;1019.7;;;18.7;71
61880;BME280;47817;52.798;27.544;2023-06-26T03:02:42;1019.7;;;18.9;70.2
61880;BME280;47817;52.798;27.544;2023-06-26T03:07:08;1019.7;;;19.2;69.3
61880;BME280;47817;52.798;27.544;2023-06-26T03:11:52;1019.5;;;19.4;68.3
61880;BME280;47817;52.798;27.544;2023-06-26T03:17:02;1019.4;;;19.8;66.6
61880;BME280;47817;52.798;27.544;2023-06-26T03:21:52;1019.3;;;20.2;64.9
61880;BME280;47817;52.798;27.544;2023-06-26T03:27:16;1019.2;;;20.4;65.2
61880;BME280;47817;52.798;27.544;2023-06-26T03:32:00;1019.3;;;20.5;65.1
61880;BME280;47817;52.798;27.544;2023-06-26T03:37:42;1019.2;;;20.5;64.7
61880;BME280;47817;52.798;27.544;2023-06-26T03:41:52;1019.2;;;20.4;64.6
61880;BME280;47817;52.798;27.544;2023-06-26T03:47:02;1019.3;;;20.3;64.4
61880;BME280;47817;52.798;27.544;2023-06-26T03:52:26;1019.2;;;20.3;63.7
61880;BME280;47817;52.798;27.544;2023-06-26T03:57:42;1019.1;;;20.3;63.1
61880;BME280;47817;52.798;27.544;2023-06-26T04:02:42;1019.1;;;20.3;62.1
61880;BME280;47817;52.798;27.544;2023-06-26T04:07:02;1019;;;20.4;62.1
61880;BME280;47817;52.798;27.544;2023-06-26T04:12:42;1019.1;;;20.4;62
61880;BME280;47817;52.798;27.544;2023-06-26T04:16:52;1019.2;;;20.4;61.9
61880;BME280;47817;52.798;27.544;2023-06-26T04:21:52;1019.3;;;20.4;62
61880;BME280;47817;52.798;27.544;2023-06-26T04:27:26;1019.3;;;20.4;62.2
61880;BME280;47817;52.798;27.544;2023-06-26T04:32:24;1019.3;;;20.5;61.2
61880;BME280;47817;52.798;27.544;2023-06-26T04:37:34;1019.3;;;20.3;61.6
61880;BME280;47817;52.798;27.544;2023-06-26T04:42:26;1019.3;;;20.3;62.1
61880;BME280;47817;52.798;27.544;2023-06-26T04:47:42;1019.4;;;20.1;62.8
61880;BME280;47817;52.798;27.544;2023-06-26T04:52:02;1019.3;;;20;63.2
61880;BME280;47817;52.798;27.544;2023-06-26T04:57:42;1019.3;;;20;63.3
61880;BME280;47817;52.798;27.544;2023-06-26T05:02:02;1019.3;;;20.1;63.2
61880;BME280;47817;52.798;27.544;2023-06-26T05:07:42;1019.5;;;20.3;63.3
61880;BME280;47817;52.798;27.544;2023-06-26T05:12:34;1019.5;;;20.3;63.7
61880;BME280;47817;52.798;27.544;2023-06-26T05:17:26;1019.5;;;20.3;64.1
61880;BME280;47817;52.798;27.544;2023-06-26T05:22:08;1019.5;;;20.3;64.7
61880;BME280;47817;52.798;27.544;2023-06-26T05:26:52;1019.5;;;20.3;64.9
61880;BME280;47817;52.798;27.544;2023-06-26T05:32:42;1019.6;;;20.2;65
61880;BME280;47817;52.798;27.544;2023-06-26T05:37:20;1019.6;;;20.4;64.5
61880;BME280;47817;52.798;27.544;2023-06-26T05:42:16;1019.6;;;20.6;63.3
61880;BME280;47817;52.798;27.544;2023-06-26T05:47:42;1019.6;;;20.8;62.5
61880;BME280;47817;52.798;27.544;2023-06-26T05:52:42;1019.6;;;20.8;61.7
61880;BME280;47817;52.798;27.544;2023-06-26T05:57:18;1019.6;;;20.9;61.5
61880;BME280;47817;52.798;27.544;2023-06-26T06:01:52;1019.5;;;20.9;60.9
61880;BME280;47817;52.798;27.544;2023-06-26T06:07:35;1019.5;;;21;60.7
61880;BME280;47817;52.798;27.544;2023-06-26T06:12:34;1019.5;;;21;60.2
61880;BME280;47817;52.798;27.544;2023-06-26T06:17:14;1019.5;;;21;60
61880;BME280;47817;52.798;27.544;2023-06-26T06:21:52;1019.5;;;21.2;59.4
61880;BME280;47817;52.798;27.544;2023-06-26T06:27:40;1019.4;;;21.4;59.1
61880;BME280;47817;52.798;27.544;2023-06-26T06:32:02;1019.4;;;21.6;58.5
61880;BME280;47817;52.798;27.544;2023-06-26T06:37:18;1019.4;;;21.7;57.8
61880;BME280;47817;52.798;27.544;2023-06-26T06:42:40;1019.4;;;21.8;56.8
61880;BME280;47817;52.798;27.544;2023-06-26T06:46:54;1019.5;;;22.1;56.1
61880;BME280;47817;52.798;27.544;2023-06-26T06:52:16;1019.5;;;22.3;55.9
61880;BME280;47817;52.798;27.544;2023-06-26T06:56:52;1019.4;;;22.3;55.3
61880;BME280;47817;52.798;27.544;2023-06-26T07:01:52;1019.4;;;22.4;55.4
61880;BME280;47817;52.798;27.544;2023-06-26T07:07:08;1019.4;;;22.6;55.2
61880;BME280;47817;52.798;27.544;2023-06-26T07:12:08;1019.4;;;22.8;54.9
61880;BME280;47817;52.798;27.544;2023-06-26T07:17:42;1019.4;;;22.9;55.1
61880;BME280;47817;52.798;27.544;2023-06-26T07:22:24;1019.4;;;22.9;54.6
61880;BME280;47817;52.798;27.544;2023-06-26T07:27:26;1019.4;;;23;53.8
61880;BME280;47817;52.798;27.544;2023-06-26T07:31:52;1019.3;;;23.1;53.7
61880;BME280;47817;52.798;27.544;2023-06-26T07:37:02;1019.3;;;23.1;53.4
61880;BME280;47817;52.798;27.544;2023-06-26T07:41:52;1019.3;;;23.1;52.8
61880;BME280;47817;52.798;27.544;2023-06-26T07:47:18;1019.3;;;23.1;52.7
61880;BME280;47817;52.798;27.544;2023-06-26T07:51:52;1019.3;;;23.3;52.1
61880;BME280;47817;52.798;27.544;2023-06-26T07:57:24;1019.2;;;23.5;52.2
61880;BME280;47817;52.798;27.544;2023-06-26T08:02:24;1019.2;;;23.8;51.8
61880;BME280;47817;52.798;27.544;2023-06-26T08:06:53;1019.2;;;24.1;51.3
61880;BME280;47817;52.798;27.544;2023-06-26T08:11:52;1019.2;;;24.3;51.3
61880;BME280;47817;52.798;27.544;2023-06-26T08:17:42;1019.2;;;24.6;50.5
61880;BME280;47817;52.798;27.544;2023-06-26T08:22:42;1019.2;;;24.6;50.2
61880;BME280;47817;52.798;27.544;2023-06-26T08:27:14;1019.1;;;24.9;49.4
61880;BME280;47817;52.798;27.544;2023-06-26T08:32:24;1019.1;;;25.2;49.3
61880;BME280;47817;52.798;27.544;2023-06-26T08:37:40;1019.1;;;25.4;47.9
61880;BME280;47817;52.798;27.544;2023-06-26T08:41:52;1019.1;;;25.6;47.3
61880;BME280;47817;52.798;27.544;2023-06-26T08:46:52;1019.1;;;25.5;47.4
61880;BME280;47817;52.798;27.544;2023-06-26T08:52:27;1019.1;;;25.7;47.3
61880;BME280;47817;52.798;27.544;2023-06-26T08:57:38;1019;;;26.2;45.6
61880;BME280;47817;52.798;27.544;2023-06-26T09:02:38;1019;;;26.3;43.9
61880;BME280;47817;52.798;27.544;2023-06-26T09:07:06;1018.9;;;26.3;42.6
61880;BME280;47817;52.798;27.544;2023-06-26T09:12:40;1018.9;;;26.5;42.1
61880;BME280;47817;52.798;27.544;2023-06-26T09:17:39;1018.8;;;26.7;41.6
61880;BME280;47817;52.798;27.544;2023-06-26T09:21:52;1018.8;;;27.2;40.2
61880;BME280;47817;52.798;27.544;2023-06-26T09:27:18;1018.6;;;27.4;40.6
61880;BME280;47817;52.798;27.544;2023-06-26T09:32:08;1018.6;;;27.9;39.6
61880;BME280;47817;52.798;27.544;2023-06-26T09:37:33;1018.5;;;28.3;38.6
61880;BME280;47817;52.798;27.544;2023-06-26T09:42:24;1018.5;;;28.4;38
61880;BME280;47817;52.798;27.544;2023-06-26T09:47:40;1018.4;;;28.5;37.5
61880;BME280;47817;52.798;27.544;2023-06-26T09:52:01;1018.4;;;28.8;36.6
61880;BME280;47817;52.798;27.544;2023-06-26T09:57:38;1018.3;;;28.5;35.6
61880;BME280;47817;52.798;27.544;2023-06-26T10:02:16;1018.3;;;28.2;35.8
61880;BME280;47817;52.798;27.544;2023-06-26T10:07:38;1018.3;;;28.2;34.1
61880;BME280;47817;52.798;27.544;2023-06-26T10:12:30;1018.2;;;28.4;33.3
61880;BME280;47817;52.798;27.544;2023-06-26T10:17:25;1018.2;;;28.8;31.7
61880;BME280;47817;52.798;27.544;2023-06-26T10:21:53;1018.1;;;28.8;32.1
61880;BME280;47817;52.798;27.544;2023-06-26T10:27:08;1018.1;;;28.5;31.8
61880;BME280;47817;52.798;27.544;2023-06-26T10:32:40;1018;;;28.8;31.8
61880;BME280;47817;52.798;27.544;2023-06-26T10:36:58;1018;;;29.2;31.6
61880;BME280;47817;52.798;27.544;2023-06-26T10:42:15;1018;;;29.1;30.9
61880;BME280;47817;52.798;27.544;2023-06-26T10:47:41;1018;;;29;30.8
61880;BME280;47817;52.798;27.544;2023-06-26T10:52:40;1018;;;29;29.8
61880;BME280;47817;52.798;27.544;2023-06-26T10:56:54;1017.8;;;29.3;29.8
61880;BME280;47817;52.798;27.544;2023-06-26T11:02:01;1017.9;;;29.2;30
61880;BME280;47817;52.798;27.544;2023-06-26T11:07:32;1017.9;;;28.7;30.1
61880;BME280;47817;52.798;27.544;2023-06-26T11:12:34;1017.9;;;28.7;31
61880;BME280;47817;52.798;27.544;2023-06-26T11:17:12;1018;;;28.2;32
61880;BME280;47817;52.798;27.544;2023-06-26T11:22:06;1017.8;;;28.2;32.2
61880;BME280;47817;52.798;27.544;2023-06-26T11:27:39;1017.8;;;28.3;31.5
61880;BME280;47817;52.798;27.544;2023-06-26T11:32:02;1017.7;;;28.4;31.1
61880;BME280;47817;52.798;27.544;2023-06-26T11:37:16;1017.7;;;28.8;30.4
61880;BME280;47817;52.798;27.544;2023-06-26T11:42:43;1017.6;;;29;29.3
61880;BME280;47817;52.798;27.544;2023-06-26T11:47:35;1017.6;;;29.4;29.4
61880;BME280;47817;52.798;27.544;2023-06-26T11:52:43;1017.6;;;29.8;28.4
61880;BME280;47817;52.798;27.544;2023-06-26T11:56:53;1017.6;;;30;28.5
61880;BME280;47817;52.798;27.544;2023-06-26T12:01:52;1017.5;;;30.2;28.3
61880;BME280;47817;52.798;27.544;2023-06-26T12:07:03;1017.4;;;30.9;27.7
61880;BME280;47817;52.798;27.544;2023-06-26T12:12:09;1017.3;;;31.4;27.2
61880;BME280;47817;52.798;27.544;2023-06-26T12:17:36;1017.3;;;31.6;26.6
61880;BME280;47817;52.798;27.544;2023-06-26T12:22:25;1017.3;;;31.5;26.3
61880;BME280;47817;52.798;27.544;2023-06-26T12:27:25;1017.4;;;31.3;26.4
61880;BME280;47817;52.798;27.544;2023-06-26T12:32:09;1017.4;;;30.9;27
61880;BME280;47817;52.798;27.544;2023-06-26T12:36:53;1017.5;;;30.2;26.9
61880;BME280;47817;52.798;27.544;2023-06-26T12:42:43;1017.6;;;29.5;27.9
61880;BME280;47817;52.798;27.544;2023-06-26T12:47:43;1017.8;;;28.3;30.4
61880;BME280;47817;52.798;27.544;2023-06-26T12:52:07;1018;;;27.3;32.7
61880;BME280;47817;52.798;27.544;2023-06-26T12:57:25;1018.1;;;26.9;34
61880;BME280;47817;52.798;27.544;2023-06-26T13:02:43;1018.3;;;26.7;35
61880;BME280;47817;52.798;27.544;2023-06-26T13:06:53;1018.2;;;26.4;36
61880;BME280;47817;52.798;27.544;2023-06-26T13:12:03;1018.4;;;26;36.7
61880;BME280;47817;52.798;27.544;2023-06-26T13:17:27;1018.3;;;25.8;37.6
61880;BME280;47817;52.798;27.544;2023-06-26T13:22:43;1018.3;;;25.7;38.2
61880;BME280;47817;52.798;27.544;2023-06-26T13:27:43;1018.3;;;25.3;38.2
61880;BME280;47817;52.798;27.544;2023-06-26T13:32:09;1018.2;;;25;38.4
61880;BME280;47817;52.798;27.544;2023-06-26T13:37:43;1018.2;;;24.8;38.7
61880;BME280;47817;52.798;27.544;2023-06-26T13:42:11;1018.2;;;24.8;38.9
61880;BME280;47817;52.798;27.544;2023-06-26T13:46:53;1018.1;;;24.9;38.8
61880;BME280;47817;52.798;27.544;2023-06-26T13:52:21;1018;;;25;39
61880;BME280;47817;52.798;27.544;2023-06-26T13:57:25;1017.8;;;25.4;39.4
61880;BME280;47817;52.798;27.544;2023-06-26T14:02:35;1017.8;;;26.4;37.4
61880;BME280;47817;52.798;27.544;2023-06-26T14:07:27;1017.6;;;28.9;34.4
61880;BME280;47817;52.798;27.544;2023-06-26T14:12:43;1017.7;;;29.9;32.8
61880;BME280;47817;52.798;27.544;2023-06-26T14:17:03;1017.8;;;29.8;32.8
61880;BME280;47817;52.798;27.544;2023-06-26T14:22:21;1017.7;;;32.2;30
61880;BME280;47817;52.798;27.544;2023-06-26T14:27:35;1017.6;;;38.1;23.6
61880;BME280;47817;52.798;27.544;2023-06-26T14:32:43;1017.6;;;41.4;19.8
61880;BME280;47817;52.798;27.544;2023-06-26T14:37:19;1017.6;;;41.5;20.1
61880;BME280;47817;52.798;27.544;2023-06-26T14:42:27;1017.4;;;42.3;17.8
61880;BME280;47817;52.798;27.544;2023-06-26T14:46:53;1017.3;;;43.2;16.8
61880;BME280;47817;52.798;27.544;2023-06-26T14:52:15;1017.2;;;44.7;15.2
61880;BME280;47817;52.798;27.544;2023-06-26T14:57:43;1017.2;;;44.7;15.5
61880;BME280;47817;52.798;27.544;2023-06-26T15:02:27;1017.2;;;43.8;15.9
61880;BME280;47817;52.798;27.544;2023-06-26T15:07:03;1017.2;;;41.4;16.7
61880;BME280;47817;52.798;27.544;2023-06-26T15:12:43;1017.1;;;40.6;17
61880;BME280;47817;52.798;27.544;2023-06-26T15:17:43;1017.1;;;41.4;16.7
61880;BME280;47817;52.798;27.544;2023-06-26T15:21:53;1017;;;42.4;16.4
61880;BME280;47817;52.798;27.544;2023-06-26T15:27:09;1017;;;43.4;15.6
61880;BME280;47817;52.798;27.544;2023-06-26T15:32:35;1017;;;42.6;16.2
61880;BME280;47817;52.798;27.544;2023-06-26T15:37:35;1016.8;;;41.8;16.7
61880;BME280;47817;52.798;27.544;2023-06-26T15:42:17;1016.6;;;43.8;15.6
61880;BME280;47817;52.798;27.544;2023-06-26T15:46:59;1016.5;;;45.8;14.4
61880;BME280;47817;52.798;27.544;2023-06-26T15:52:44;1016.6;;;46.3;14.2
61880;BME280;47817;52.798;27.544;2023-06-26T15:57:03;1016.7;;;45.4;14.7
61880;BME280;47817;52.798;27.544;2023-06-26T16:02:19;1016.7;;;46;14.7
61880;BME280;47817;52.798;27.544;2023-06-26T16:07:43;1016.6;;;46.2;15
61880;BME280;47817;52.798;27.544;2023-06-26T16:12:25;1016.6;;;45.9;15.8
61880;BME280;47817;52.798;27.544;2023-06-26T16:17:43;1016.7;;;45.4;16.3
61880;BME280;47817;52.798;27.544;2023-06-26T16:22:09;1016.8;;;43.3;18.1
61880;BME280;47817;52.798;27.544;2023-06-26T16:27:03;1016.9;;;44;18
61880;BME280;47817;52.798;27.544;2023-06-26T16:31:53;1016.9;;;44.3;18.1
61880;BME280;47817;52.798;27.544;2023-06-26T16:37:19;1016.9;;;42.8;19.2
61880;BME280;47817;52.798;27.544;2023-06-26T16:42:17;1016.9;;;38.9;22.2
61880;BME280;47817;52.798;27.544;2023-06-26T16:47:25;1016.9;;;35;25.6
61880;BME280;47817;52.798;27.544;2023-06-26T16:52:25;1016.9;;;32.2;28.5
61880;BME280;47817;52.798;27.544;2023-06-26T16:56:53;1017;;;30.5;30.8
61880;BME280;47817;52.798;27.544;2023-06-26T17:01:53;1017;;;29.1;32.9
61880;BME280;47817;52.798;27.544;2023-06-26T17:07:43;1017.1;;;28.1;34.8
61880;BME280;47817;52.798;27.544;2023-06-26T17:12:43;1017.1;;;27.4;36.1
61880;BME280;47817;52.798;27.544;2023-06-26T17:17:41;1017.1;;;26.8;37.8
61880;BME280;47817;52.798;27.544;2023-06-26T17:22:23;1017.1;;;26.4;39.5
61880;BME280;47817;52.798;27.544;2023-06-26T17:27:43;1017.2;;;26.1;40.3
61880;BME280;47817;52.798;27.544;2023-06-26T17:32:03;1017.2;;;25.8;41.4
61880;BME280;47817;52.798;27.544;2023-06-26T17:36:53;1017.2;;;25.5;42.2
61880;BME280;47817;52.798;27.544;2023-06-26T17:42:27;1017.1;;;25.2;43.6
61880;BME280;47817;52.798;27.544;2023-06-26T17:47:45;1017;;;25;43.5
61880;BME280;47817;52.798;27.544;2023-06-26T17:52:45;1017;;;24.7;43.8
61880;BME280;47817;52.798;27.544;2023-06-26T17:57:03;1017;;;24.4;44.8
61880;BME280;47817;52.798;27.544;2023-06-26T18:02:43;1017;;;24.2;45.9
61880;BME280;47817;52.798;27.544;2023-06-26T18:06:53;1017.1;;;24.1;47
61880;BME280;47817;52.798;27.544;2023-06-26T18:12:03;1017.1;;;23.9;47.2
61880;BME280;47817;52.798;27.544;2023-06-26T18:17:29;1017.1;;;23.7;47.4
61880;BME280;47817;52.798;27.544;2023-06-26T18:22:27;1017.2;;;23.4;48
61880;BME280;47817;52.798;27.544;2023-06-26T18:27:45;1017.2;;;23.1;48.4
61880;BME280;47817;52.798;27.544;2023-06-26T18:32:21;1017.2;;;22.9;48.9
61880;BME280;47817;52.798;27.544;2023-06-26T18:37:45;1017.3;;;22.7;49.3
61880;BME280;47817;52.798;27.544;2023-06-26T18:41:53;1017.3;;;22.5;50.4
61880;BME280;47817;52.798;27.544;2023-06-26T18:47:43;1017.3;;;22.4;51.7
61880;BME280;47817;52.798;27.544;2023-06-26T18:51:53;1017.3;;;22.3;52.6
61880;BME280;47817;52.798;27.544;2023-06-26T18:57:43;1017.3;;;22.3;52.9
61880;BME280;47817;52.798;27.544;2023-06-26T19:02:31;1017.3;;;22.1;52.8
61880;BME280;47817;52.798;27.544;2023-06-26T19:07:27;1017.4;;;21.9;53.6
61880;BME280;47817;52.798;27.544;2023-06-26T19:11:53;1017.4;;;21.8;54.2
61880;BME280;47817;52.798;27.544;2023-06-26T19:16:53;1017.3;;;21.8;54.8
61880;BME280;47817;52.798;27.544;2023-06-26T19:22:45;1017.3;;;21.8;55.8
61880;BME280;47817;52.798;27.544;2023-06-26T19:26:53;1017.3;;;21.8;56.1
61880;BME280;47817;52.798;27.544;2023-06-26T19:31:54;1017.3;;;21.7;56.7
61880;BME280;47817;52.798;27.544;2023-06-26T19:37:31;1017.2;;;21.7;56.8
61880;BME280;47817;52.798;27.544;2023-06-26T19:42:43;1017.2;;;21.7;57
61880;BME280;47817;52.798;27.544;2023-06-26T19:46:53;1017.2;;;21.6;57
61880;BME280;47817;52.798;27.544;2023-06-26T19:51:53;1017.2;;;21.6;56.8
61880;BME280;47817;52.798;27.544;2023-06-26T19:57:05;1017.1;;;21.6;56.5
61880;BME280;47817;52.798;27.544;2023-06-26T20:02:35;1017.1;;;21.6;57
61880;BME280;47817;52.798;27.544;2023-06-26T20:07:17;1017;;;21.4;57.9
61880;BME280;47817;52.798;27.544;2023-06-26T20:12:11;1017;;;21.4;58.3
61880;BME280;47817;52.798;27.544;2023-06-26T20:16:53;1017;;;21.4;57.9
61880;BME280;47817;52.798;27.544;2023-06-26T20:21:53;1017;;;21.4;58
61880;BME280;47817;52.798;27.544;2023-06-26T20:27:19;1017.1;;;21.4;58
61880;BME280;47817;52.798;27.544;2023-06-26T20:32:45;1017.1;;;21.3;57.7
61880;BME280;47817;52.798;27.544;2023-06-26T20:37:25;1017.2;;;21.3;58
61880;BME280;47817;52.798;27.544;2023-06-26T20:42:43;1017.1;;;21.3;58.5
61880;BME280;47817;52.798;27.544;2023-06-26T20:47:11;1017.1;;;21.2;59.2
61880;BME280;47817;52.798;27.544;2023-06-26T20:51:54;1017.1;;;21.1;59.9
61880;BME280;47817;52.798;27.544;2023-06-26T20:56:53;1017.2;;;21;60.9
61880;BME280;47817;52.798;27.544;2023-06-26T21:07:15;1017.2;;;20.7;60.8
61880;BME280;47817;52.798;27.544;2023-06-26T21:12:18;1017.2;;;20.4;62.1
61880;BME280;47817;52.798;27.544;2023-06-26T21:17:25;1017.1;;;20.2;63
61880;BME280;47817;52.798;27.544;2023-06-26T21:22:11;1017.1;;;20;63.3
61880;BME280;47817;52.798;27.544;2023-06-26T21:27:01;1017.1;;;19.8;64.1
61880;BME280;47817;52.798;27.544;2023-06-26T21:32:45;1017.1;;;19.6;65.2
61880;BME280;47817;52.798;27.544;2023-06-26T21:37:43;1017.1;;;19.5;65.2
61880;BME280;47817;52.798;27.544;2023-06-26T21:42:05;1017;;;19.4;65.8
61880;BME280;47817;52.798;27.544;2023-06-26T21:47:17;1017;;;19.2;66.4
61880;BME280;47817;52.798;27.544;2023-06-26T21:52:41;1017.1;;;19.1;66.2
61880;BME280;47817;52.798;27.544;2023-06-26T21:56:53;1017;;;19.1;66.7
61880;BME280;47817;52.798;27.544;2023-06-26T22:01:53;1017;;;19.1;66.6
61880;BME280;47817;52.798;27.544;2023-06-26T22:07:29;1016.9;;;19.1;67
61880;BME280;47817;52.798;27.544;2023-06-26T22:12:43;1016.9;;;19.1;67.4
61880;BME280;47817;52.798;27.544;2023-06-26T22:17:46;1016.8;;;19.2;67
61880;BME280;47817;52.798;27.544;2023-06-26T22:22:03;1016.8;;;19.3;66.7
61880;BME280;47817;52.798;27.544;2023-06-26T22:27:46;1016.7;;;19.3;66.7
61880;BME280;47817;52.798;27.544;2023-06-26T22:31:53;1016.7;;;19.3;66.5
61880;BME280;47817;52.798;27.544;2023-06-26T22:36:53;1016.7;;;19.3;66.4
61880;BME280;47817;52.798;27.544;2023-06-26T22:42:29;1016.6;;;19.3;66.5
61880;BME280;47817;52.798;27.544;2023-06-26T22:47:05;1016.6;;;19.3;67.2
61880;BME280;47817;52.798;27.544;2023-06-26T22:52:35;1016.5;;;19.3;67.7
61880;BME280;47817;52.798;27.544;2023-06-26T22:57:29;1016.5;;;19.3;68.1
61880;BME280;47817;52.798;27.544;2023-06-26T23:02:45;1016.6;;;19.2;69.1
61880;BME280;47817;52.798;27.544;2023-06-26T23:06:53;1016.5;;;19.1;69.2
61880;BME280;47817;52.798;27.544;2023-06-26T23:12:45;1016.5;;;19;68.3
61880;BME280;47817;52.798;27.544;2023-06-26T23:17:03;1016.5;;;18.8;69.2
61880;BME280;47817;52.798;27.544;2023-06-26T23:22:45;1016.4;;;18.6;69.9
61880;BME280;47817;52.798;27.544;2023-06-26T23:27:35;1016.5;;;18.5;70.5
61880;BME280;47817;52.798;27.544;2023-06-26T23:32:11;1016.6;;;18.4;71.4
61880;BME280;47817;52.798;27.544;2023-06-26T23:36:53;1016.6;;;18.3;71.7
61880;BME280;47817;52.798;27.544;2023-06-26T23:42:03;1016.6;;;18.2;71.7
61880;BME280;47817;52.798;27.544;2023-06-26T23:47:35;1016.7;;;18.1;71.9
61880;BME280;47817;52.798;27.544;2023-06-26T23:52:19;1016.7;;;18.1;72
61880;BME280;47817;52.798;27.544;2023-06-26T23:57:17;1016.7;;;18.1;72.2
